Time;durP1;ratioP1;P1;durP2;ratioP2;P2;SDS_P1;SDS_P2;PMS_P1;PMS_P2;Temp;Humidity;BMP_temperature;BMP_pressure;BME280_temperature;BME280_humidity;BME280_pressure;Samples;Min_cycle;Max_cycle;Signal;HPM_P1;HPM_P2
2021/12/11 00:02:22;;;;;;;22.13;10.30;;;;;;;;;;4974825;28;91744;-69
2021/12/11 00:04:50;;;;;;;18.75;10.10;;;;;;;;;;4969363;28;92513;-69
2021/12/11 00:07:17;;;;;;;22.80;10.32;;;;;;;;;;4975004;28;94877;-69
2021/12/11 00:09:46;;;;;;;17.05;10.02;;;;;;;;;;4972999;28;95726;-69
2021/12/11 00:12:27;;;;;;;16.42;9.90;;;;;;;;;;4974325;28;94497;-69
2021/12/11 00:14:57;;;;;;;19.92;10.13;;;;;;;;;;4975109;28;93640;-69
2021/12/11 00:17:27;;;;;;;15.02;10.10;;;;;;;;;;4974780;28;92525;-69
2021/12/11 00:19:54;;;;;;;21.00;10.20;;;;;;;;;;4974859;28;97412;-69
2021/12/11 00:22:25;;;;;;;16.67;9.80;;;;;;;;;;4958067;28;93793;-69
2021/12/11 00:24:51;;;;;;;;;;;;;;;;;;4976010;28;94268;-69
2021/12/11 00:27:23;;;;;;;20.52;9.38;;;;;;;;;;4976184;28;122077;-69
2021/12/11 00:29:49;;;;;;;21.23;8.98;;;;;;;;;;4975099;28;92428;-69
2021/12/11 00:32:24;;;;;;;18.08;8.73;;;;;;;;;;4957682;28;94529;-69
2021/12/11 00:34:52;;;;;;;14.23;9.13;;;;;;;;;;4972785;28;95831;-69
2021/12/11 00:37:20;;;;;;;17.85;9.45;;;;;;;;;;4972722;28;92486;-69
2021/12/11 00:39:48;;;;;;;16.95;9.30;;;;;;;;;;4959468;28;92952;-69
2021/12/11 00:42:15;;;;;;;17.00;8.70;;;;;;;;;;4971760;28;92386;-69
2021/12/11 00:44:43;;;;;;;16.38;8.85;;;;;;;;;;4974733;28;93232;-69
2021/12/11 00:47:12;;;;;;;16.50;9.20;;;;;;;;;;4957519;28;94774;-69
2021/12/11 00:49:50;;;;;;;15.20;8.93;;;;;;;;;;4974537;28;92481;-69
2021/12/11 00:52:17;;;;;;;15.85;9.75;;;;;;;;;;4974969;28;91945;-69
2021/12/11 00:54:44;;;;;;;14.40;8.35;;;;;;;;;;4973853;28;92605;-69
2021/12/11 00:57:12;;;;;;;17.25;8.80;;;;;;;;;;4971990;28;92903;-69
2021/12/11 00:59:38;;;;;;;15.30;8.63;;;;;;;;;;4973534;28;95172;-69
2021/12/11 01:02:06;;;;;;;16.45;9.10;;;;;;;;;;4976527;28;92724;-69
2021/12/11 01:04:41;;;;;;;20.50;8.73;;;;;;;;;;4974240;28;93588;-69
2021/12/11 01:07:16;;;;;;;19.23;9.07;;;;;;;;;;4974398;28;92421;-69
2021/12/11 01:09:47;;;;;;;16.75;9.82;;;;;;;;;;4973630;28;92526;-69
2021/12/11 01:12:20;;;;;;;15.23;8.95;;;;;;;;;;4974377;28;92524;-69
2021/12/11 01:15:07;;;;;;;15.15;9.77;;;;;;;;;;4974297;28;92518;-69
2021/12/11 01:17:46;;;;;;;12.98;8.90;;;;;;;;;;4974723;28;91903;-69
2021/12/11 01:20:25;;;;;;;16.35;8.88;;;;;;;;;;4974931;28;92963;-69
2021/12/11 01:22:52;;;;;;;19.88;9.98;;;;;;;;;;4974002;28;95738;-69
2021/12/11 01:25:20;;;;;;;15.07;8.63;;;;;;;;;;4972318;28;94677;-69
2021/12/11 01:27:58;;;;;;;20.25;8.85;;;;;;;;;;4956507;28;92855;-69
2021/12/11 01:30:27;;;;;;;16.33;9.38;;;;;;;;;;4956425;28;92530;-69
2021/12/11 01:32:53;;;;;;;16.52;9.70;;;;;;;;;;4960042;28;93143;-69
2021/12/11 01:35:20;;;;;;;17.35;10.43;;;;;;;;;;4955234;28;93550;-69
2021/12/11 01:37:47;;;;;;;25.30;11.07;;;;;;;;;;4974655;28;92484;-69
2021/12/11 01:40:16;;;;;;;20.05;11.10;;;;;;;;;;4973551;28;93081;-69
2021/12/11 01:42:43;;;;;;;18.08;10.85;;;;;;;;;;4974293;28;91709;-69
2021/12/11 01:45:12;;;;;;;21.13;12.05;;;;;;;;;;4976815;28;92161;-69
2021/12/11 01:47:40;;;;;;;18.53;10.43;;;;;;;;;;4955399;28;94038;-69
2021/12/11 01:50:12;;;;;;;26.67;12.65;;;;;;;;;;4971096;28;94807;-69
2021/12/11 01:52:47;;;;;;;18.63;11.52;;;;;;;;;;4972753;28;96794;-69
2021/12/11 01:55:19;;;;;;;25.88;12.32;;;;;;;;;;4972167;28;92918;-69
2021/12/11 01:57:47;;;;;;;27.80;12.20;;;;;;;;;;4955574;28;92397;-69
2021/12/11 02:00:16;;;;;;;22.92;11.65;;;;;;;;;;4972285;28;93675;-69
2021/12/11 02:02:46;;;;;;;21.45;12.82;;;;;;;;;;4954944;28;92524;-69
2021/12/11 02:05:15;;;;;;;18.30;12.02;;;;;;;;;;4973637;28;92434;-69
2021/12/11 02:07:43;;;;;;;22.20;12.10;;;;;;;;;;4976608;28;93788;-69
2021/12/11 02:10:17;;;;;;;28.02;12.15;;;;;;;;;;4973034;28;92508;-69
2021/12/11 02:12:44;;;;;;;25.60;12.40;;;;;;;;;;4972656;28;92327;-69
2021/12/11 02:15:13;;;;;;;23.00;11.57;;;;;;;;;;4971387;28;94808;-69
2021/12/11 02:17:53;;;;;;;18.88;11.10;;;;;;;;;;4965189;28;92462;-69
2021/12/11 02:20:21;;;;;;;24.75;12.50;;;;;;;;;;4956260;28;92986;-69
2021/12/11 02:22:48;;;;;;;22.95;11.75;;;;;;;;;;4966570;28;93222;-69
2021/12/11 02:25:20;;;;;;;19.90;11.30;;;;;;;;;;4976830;28;92304;-69
2021/12/11 02:27:50;;;;;;;19.92;11.52;;;;;;;;;;4976403;28;92494;-69
2021/12/11 02:30:21;;;;;;;25.20;10.63;;;;;;;;;;4978613;28;92418;-69
2021/12/11 02:33:07;;;;;;;28.35;11.38;;;;;;;;;;4976002;28;92457;-69
2021/12/11 02:35:41;;;;;;;16.52;10.10;;;;;;;;;;4942345;28;93887;-69
2021/12/11 02:38:15;;;;;;;20.15;11.02;;;;;;;;;;4969327;28;92457;-69
2021/12/11 02:40:42;;;;;;;20.73;11.95;;;;;;;;;;4974648;28;94908;-69
2021/12/11 02:43:24;;;;;;;22.33;11.25;;;;;;;;;;4957781;28;95032;-69
2021/12/11 02:46:06;;;;;;;20.38;11.95;;;;;;;;;;4958769;28;92472;-69
2021/12/11 02:48:37;;;;;;;19.13;11.50;;;;;;;;;;4976868;28;92361;-69
2021/12/11 02:51:14;;;;;;;18.83;11.02;;;;;;;;;;4975101;28;93659;-69
2021/12/11 02:53:47;;;;;;;22.25;11.77;;;;;;;;;;4977188;28;92449;-69
2021/12/11 02:56:25;;;;;;;17.10;11.07;;;;;;;;;;4957259;28;94424;-69
2021/12/11 02:58:53;;;;;;;24.02;11.88;;;;;;;;;;4977247;28;91639;-69
2021/12/11 03:01:30;;;;;;;24.00;12.15;;;;;;;;;;4975797;28;92394;-69
2021/12/11 03:04:05;;;;;;;20.85;11.80;;;;;;;;;;4957967;28;92662;-69
2021/12/11 03:06:39;;;;;;;23.25;12.18;;;;;;;;;;4957705;28;94793;-69
2021/12/11 03:09:07;;;;;;;25.88;11.65;;;;;;;;;;4958515;28;95483;-69
2021/12/11 03:11:33;;;;;;;21.65;10.90;;;;;;;;;;4974457;28;92679;-69
2021/12/11 03:14:03;;;;;;;22.55;11.02;;;;;;;;;;4976470;28;92878;-69
2021/12/11 03:16:32;;;;;;;20.80;11.93;;;;;;;;;;4978990;28;93075;-69
2021/12/11 03:18:59;;;;;;;23.30;12.35;;;;;;;;;;4958206;28;92494;-69
2021/12/11 03:21:26;;;;;;;19.38;11.70;;;;;;;;;;4958236;28;92507;-69
2021/12/11 03:23:55;;;;;;;19.25;11.07;;;;;;;;;;4973900;28;92897;-69
2021/12/11 03:26:21;;;;;;;20.02;10.68;;;;;;;;;;4975749;28;92419;-69
2021/12/11 03:28:48;;;;;;;21.95;11.90;;;;;;;;;;4958740;28;94491;-69
2021/12/11 03:31:14;;;;;;;25.52;12.93;;;;;;;;;;4972980;28;94825;-69
2021/12/11 03:33:45;;;;;;;24.33;12.75;;;;;;;;;;4975565;28;92348;-69
2021/12/11 03:36:13;;;;;;;34.50;13.35;;;;;;;;;;4978137;28;92356;-69
2021/12/11 03:38:42;;;;;;;20.95;12.48;;;;;;;;;;4976144;28;92391;-69
2021/12/11 03:41:09;;;;;;;22.52;12.25;;;;;;;;;;4958151;28;93234;-69
2021/12/11 03:43:35;;;;;;;19.25;11.57;;;;;;;;;;4973613;28;92645;-69
2021/12/11 03:46:07;;;;;;;19.42;12.30;;;;;;;;;;4975685;28;92398;-69
2021/12/11 03:48:39;;;;;;;24.48;12.10;;;;;;;;;;4975649;28;91879;-69
2021/12/11 03:51:08;;;;;;;29.63;11.18;;;;;;;;;;4973830;28;93331;-69
2021/12/11 03:53:34;;;;;;;20.55;11.75;;;;;;;;;;4975344;28;92351;-69
2021/12/11 03:56:04;;;;;;;24.38;12.20;;;;;;;;;;4971956;28;94865;-69
2021/12/11 03:58:31;;;;;;;26.40;13.25;;;;;;;;;;4978572;28;92369;-69
2021/12/11 04:01:00;;;;;;;23.45;12.18;;;;;;;;;;4974037;28;92547;-69
2021/12/11 04:03:28;;;;;;;23.48;12.00;;;;;;;;;;4974879;28;92653;-69
2021/12/11 04:05:56;;;;;;;25.33;12.55;;;;;;;;;;4975346;28;92422;-69
2021/12/11 04:08:24;;;;;;;24.23;12.95;;;;;;;;;;4974778;28;92364;-69
2021/12/11 04:10:51;;;;;;;18.23;11.40;;;;;;;;;;4974959;28;92489;-69
2021/12/11 04:13:18;;;;;;;27.35;13.45;;;;;;;;;;4958084;28;91736;-68
2021/12/11 04:15:46;;;;;;;22.10;12.43;;;;;;;;;;4974925;28;92972;-68
2021/12/11 04:18:12;;;;;;;24.33;13.15;;;;;;;;;;4959047;28;93325;-69
2021/12/11 04:20:42;;;;;;;22.38;12.52;;;;;;;;;;4977083;28;94885;-68
2021/12/11 04:23:11;;;;;;;20.55;12.35;;;;;;;;;;4974051;28;93541;-69
2021/12/11 04:25:39;;;;;;;21.95;13.00;;;;;;;;;;4975275;28;92354;-68
2021/12/11 04:28:06;;;;;;;19.55;12.90;;;;;;;;;;4975489;28;92967;-69
2021/12/11 04:30:32;;;;;;;25.70;12.75;;;;;;;;;;4958519;28;92543;-69
2021/12/11 04:32:59;;;;;;;23.38;13.20;;;;;;;;;;4974404;28;92482;-69
2021/12/11 04:35:28;;;;;;;20.83;11.80;;;;;;;;;;4952070;28;93405;-69
2021/12/11 04:37:56;;;;;;;27.75;13.27;;;;;;;;;;4974569;28;94670;-69
2021/12/11 04:40:25;;;;;;;31.55;13.73;;;;;;;;;;4974902;28;92473;-69
2021/12/11 04:42:58;;;;;;;21.58;11.70;;;;;;;;;;4977913;28;92302;-69
2021/12/11 04:45:34;;;;;;;25.15;12.70;;;;;;;;;;4973868;28;94749;-69
2021/12/11 04:48:11;;;;;;;21.05;12.25;;;;;;;;;;4941403;28;95554;-69
2021/12/11 04:50:48;;;;;;;19.65;12.32;;;;;;;;;;4972715;28;94871;-69
2021/12/11 04:56:27;;;;;;;27.13;13.63;;;;;;;;;;4974533;28;95470;-69
2021/12/11 05:04:13;;;;;;;24.13;14.05;;;;;;;;;;4973231;28;93228;-68
2021/12/11 05:09:53;;;;;;;28.75;14.85;;;;;;;;;;4892264;28;92666;-68
2021/12/11 05:12:33;;;;;;;26.77;16.45;;;;;;;;;;4892837;28;94876;-68
2021/12/11 05:15:00;;;;;;;28.65;15.07;;;;;;;;;;4894275;28;92467;-68
2021/12/11 05:17:26;;;;;;;29.80;15.73;;;;;;;;;;4894026;28;93015;-69
2021/12/11 05:19:53;;;;;;;24.92;16.10;;;;;;;;;;4894263;28;93683;-69
2021/12/11 05:22:19;;;;;;;24.17;15.23;;;;;;;;;;4894510;28;92659;-69
2021/12/11 05:24:48;;;;;;;31.92;16.83;;;;;;;;;;4878158;28;93216;-69
2021/12/11 05:27:15;;;;;;;22.77;15.13;;;;;;;;;;4878608;28;92583;-68
2021/12/11 05:29:41;;;;;;;21.98;14.43;;;;;;;;;;4897176;28;91710;-68
2021/12/11 05:32:10;;;;;;;23.58;15.93;;;;;;;;;;4893745;28;92481;-68
2021/12/11 05:34:37;;;;;;;25.70;15.47;;;;;;;;;;4877983;28;92396;-68
2021/12/11 05:37:04;;;;;;;24.33;15.52;;;;;;;;;;4891224;28;95217;-69
2021/12/11 05:39:30;;;;;;;24.55;16.63;;;;;;;;;;4878250;28;93546;-69
2021/12/11 05:41:57;;;;;;;31.52;16.75;;;;;;;;;;4894191;28;92571;-69
2021/12/11 05:44:23;;;;;;;32.30;16.40;;;;;;;;;;4942710;28;93210;-69
2021/12/11 05:46:51;;;;;;;38.90;18.35;;;;;;;;;;4956379;28;93561;-69
2021/12/11 05:49:19;;;;;;;39.50;18.85;;;;;;;;;;4959288;28;92959;-69
2021/12/11 05:51:46;;;;;;;30.00;18.27;;;;;;;;;;4956026;28;94488;-69
2021/12/11 05:54:15;;;;;;;33.20;19.25;;;;;;;;;;4954669;28;91752;-69
2021/12/11 05:56:41;;;;;;;34.90;19.13;;;;;;;;;;4951814;28;92518;-69
2021/12/11 05:59:09;;;;;;;40.25;19.55;;;;;;;;;;4937864;28;93236;-69
2021/12/11 06:01:43;;;;;;;37.45;20.63;;;;;;;;;;4971223;28;94770;-69
2021/12/11 06:04:11;;;;;;;39.20;19.52;;;;;;;;;;4972733;28;95482;-69
2021/12/11 06:06:38;;;;;;;39.67;20.35;;;;;;;;;;4955333;28;93279;-69
2021/12/11 06:09:06;;;;;;;45.40;21.90;;;;;;;;;;4973771;28;92531;-69
2021/12/11 06:11:32;;;;;;;42.65;22.17;;;;;;;;;;4958423;28;94959;-69
2021/12/11 06:13:59;;;;;;;46.25;23.75;;;;;;;;;;4973041;28;92336;-69
2021/12/11 06:16:25;;;;;;;46.25;23.33;;;;;;;;;;4972254;28;94657;-69
2021/12/11 06:18:52;;;;;;;42.03;21.50;;;;;;;;;;4973564;28;93096;-69
2021/12/11 06:21:18;;;;;;;41.78;22.70;;;;;;;;;;4973523;28;92392;-69
2021/12/11 06:23:44;;;;;;;41.72;22.23;;;;;;;;;;4974486;28;92521;-69
2021/12/11 06:26:11;;;;;;;42.58;23.85;;;;;;;;;;4962843;28;94576;-69
2021/12/11 06:28:37;;;;;;;36.72;20.70;;;;;;;;;;4953671;28;92369;-69
2021/12/11 06:31:04;;;;;;;46.25;20.38;;;;;;;;;;4955483;28;93247;-69
2021/12/11 06:33:32;;;;;;;39.25;20.30;;;;;;;;;;4975414;28;92750;-69
2021/12/11 06:36:01;;;;;;;40.03;22.08;;;;;;;;;;4971925;28;92495;-69
2021/12/11 06:38:30;;;;;;;49.95;22.63;;;;;;;;;;4973363;28;93366;-69
2021/12/11 06:40:57;;;;;;;51.50;23.13;;;;;;;;;;4972378;28;92415;-69
2021/12/11 06:43:23;;;;;;;36.45;20.83;;;;;;;;;;4956139;28;94365;-69
2021/12/11 06:45:50;;;;;;;53.72;23.98;;;;;;;;;;4972992;28;93479;-69
2021/12/11 06:48:17;;;;;;;49.00;22.48;;;;;;;;;;4973219;28;92701;-69
2021/12/11 06:50:44;;;;;;;45.72;22.65;;;;;;;;;;4970158;28;94814;-69
2021/12/11 06:53:13;;;;;;;47.95;23.15;;;;;;;;;;4970895;28;93094;-69
2021/12/11 06:55:39;;;;;;;41.67;21.30;;;;;;;;;;4976214;28;92336;-69
2021/12/11 06:58:06;;;;;;;39.25;21.55;;;;;;;;;;4953927;28;93742;-69
2021/12/11 07:00:32;;;;;;;35.60;21.35;;;;;;;;;;4954827;28;92534;-69
2021/12/11 07:02:59;;;;;;;37.75;20.58;;;;;;;;;;4954556;28;93314;-69
2021/12/11 07:05:25;;;;;;;40.92;21.08;;;;;;;;;;4972176;28;93905;-69
2021/12/11 07:07:51;;;;;;;37.20;20.23;;;;;;;;;;4975440;28;91729;-69
2021/12/11 07:10:21;;;;;;;39.65;21.15;;;;;;;;;;4975515;28;92354;-69
2021/12/11 07:12:48;;;;;;;45.50;22.98;;;;;;;;;;4958224;28;92804;-69
2021/12/11 07:15:15;;;;;;;40.78;20.95;;;;;;;;;;4974759;28;94764;-69
2021/12/11 07:17:42;;;;;;;34.03;20.25;;;;;;;;;;4978766;28;94300;-69
2021/12/11 07:20:10;;;;;;;35.05;19.15;;;;;;;;;;4975512;28;92347;-69
2021/12/11 07:22:39;;;;;;;34.75;20.90;;;;;;;;;;4974670;28;92364;-69
2021/12/11 07:25:08;;;;;;;32.47;20.50;;;;;;;;;;4975830;28;92596;-69
2021/12/11 07:27:35;;;;;;;33.42;20.10;;;;;;;;;;4975819;28;92589;-69
2021/12/11 07:30:01;;;;;;;35.10;19.65;;;;;;;;;;4975311;28;92437;-69
2021/12/11 07:32:28;;;;;;;33.60;20.65;;;;;;;;;;4975459;28;91713;-69
2021/12/11 07:34:54;;;;;;;38.35;20.63;;;;;;;;;;4973484;28;92489;-69
2021/12/11 07:37:20;;;;;;;37.20;21.13;;;;;;;;;;4978035;28;95298;-69
2021/12/11 07:39:47;;;;;;;34.50;20.50;;;;;;;;;;4973312;28;94874;-69
2021/12/11 07:42:13;;;;;;;35.60;19.92;;;;;;;;;;4976041;28;94196;-68
2021/12/11 07:44:39;;;;;;;33.83;19.13;;;;;;;;;;4975488;28;93570;-68
2021/12/11 07:47:06;;;;;;;33.95;19.90;;;;;;;;;;4975221;28;92475;-68
2021/12/11 07:49:32;;;;;;;38.70;20.10;;;;;;;;;;4974890;28;94262;-68
2021/12/11 07:51:59;;;;;;;35.80;20.30;;;;;;;;;;4958833;28;95090;-68
2021/12/11 07:54:25;;;;;;;36.10;21.33;;;;;;;;;;4968753;28;92494;-69
2021/12/11 07:56:53;;;;;;;32.95;19.25;;;;;;;;;;4975868;28;94291;-69
2021/12/11 07:59:20;;;;;;;35.75;20.77;;;;;;;;;;4941507;28;92731;-69
2021/12/11 08:01:48;;;;;;;41.22;22.13;;;;;;;;;;4975262;28;92472;-69
2021/12/11 08:04:14;;;;;;;38.25;21.10;;;;;;;;;;4973451;28;97324;-69
2021/12/11 08:06:41;;;;;;;35.63;20.88;;;;;;;;;;4975136;28;92449;-69
2021/12/11 08:09:09;;;;;;;31.15;19.42;;;;;;;;;;4975510;28;92634;-69
2021/12/11 08:11:35;;;;;;;41.25;20.65;;;;;;;;;;4957703;28;93740;-69
2021/12/11 08:14:02;;;;;;;42.88;20.70;;;;;;;;;;4975274;28;92442;-69
2021/12/11 08:16:34;;;;;;;40.05;20.95;;;;;;;;;;4974883;28;92415;-69
2021/12/11 08:19:01;;;;;;;38.97;21.00;;;;;;;;;;4974116;28;96762;-68
2021/12/11 08:21:28;;;;;;;34.17;19.25;;;;;;;;;;4977961;28;91638;-68
2021/12/11 08:23:56;;;;;;;30.08;20.27;;;;;;;;;;4975326;28;92295;-69
2021/12/11 08:26:24;;;;;;;36.33;21.70;;;;;;;;;;4974934;28;92500;-69
2021/12/11 08:28:51;;;;;;;42.33;24.63;;;;;;;;;;4973476;28;94926;-69
2021/12/11 08:31:18;;;;;;;42.22;23.95;;;;;;;;;;4974070;28;93615;-69
2021/12/11 08:33:45;;;;;;;41.17;24.38;;;;;;;;;;4974521;28;92462;-69
2021/12/11 08:36:12;;;;;;;47.67;28.00;;;;;;;;;;4956904;28;92557;-69
2021/12/11 08:38:38;;;;;;;38.65;24.70;;;;;;;;;;4957402;28;94679;-69
2021/12/11 08:41:07;;;;;;;38.10;23.83;;;;;;;;;;4957209;28;92469;-68
2021/12/11 08:43:34;;;;;;;35.35;23.25;;;;;;;;;;4977054;28;93031;-69
2021/12/11 08:46:14;;;;;;;38.53;22.33;;;;;;;;;;4955413;28;91733;-70
2021/12/11 08:48:44;;;;;;;34.15;21.75;;;;;;;;;;4967459;28;94240;-69
2021/12/11 08:51:13;;;;;;;33.28;20.75;;;;;;;;;;4959629;28;92711;-69
2021/12/11 08:53:40;;;;;;;36.83;21.40;;;;;;;;;;4972912;28;94773;-69
2021/12/11 08:56:08;;;;;;;43.25;21.98;;;;;;;;;;4973668;28;95775;-69
2021/12/11 08:58:35;;;;;;;36.42;21.13;;;;;;;;;;4974396;28;94044;-69
2021/12/11 09:01:09;;;;;;;36.22;21.10;;;;;;;;;;4956915;28;92403;-69
2021/12/11 09:03:39;;;;;;;34.75;22.50;;;;;;;;;;4956924;28;92468;-70
2021/12/11 09:06:09;;;;;;;34.13;21.77;;;;;;;;;;4976918;28;92634;-70
2021/12/11 09:08:55;;;;;;;37.92;21.75;;;;;;;;;;4974108;28;92421;-69
2021/12/11 09:11:34;;;;;;;37.50;22.25;;;;;;;;;;4957243;28;92861;-69
2021/12/11 09:14:05;;;;;;;46.05;22.00;;;;;;;;;;4974431;28;92481;-69
2021/12/11 09:16:31;;;;;;;36.10;21.02;;;;;;;;;;4956838;28;93285;-69
2021/12/11 09:19:01;;;;;;;35.40;21.73;;;;;;;;;;4952906;28;96183;-69
2021/12/11 09:21:35;;;;;;;36.30;22.15;;;;;;;;;;4965211;28;92517;-69
2021/12/11 09:24:09;;;;;;;36.80;21.15;;;;;;;;;;4973254;28;93268;-69
2021/12/11 09:26:44;;;;;;;40.90;22.23;;;;;;;;;;4974338;28;93483;-69
2021/12/11 09:29:21;;;;;;;40.83;21.75;;;;;;;;;;4976347;28;92507;-70
2021/12/11 09:31:57;;;;;;;72.85;22.00;;;;;;;;;;4973962;28;93918;-69
2021/12/11 09:34:27;;;;;;;45.22;21.67;;;;;;;;;;4955469;28;92568;-69
2021/12/11 09:36:57;;;;;;;424.50;26.38;;;;;;;;;;4973685;28;94544;-69
2021/12/11 09:39:28;;;;;;;487.23;27.83;;;;;;;;;;4973325;28;93584;-69
2021/12/11 09:41:55;;;;;;;445.88;28.75;;;;;;;;;;4974023;28;92285;-67
2021/12/11 09:44:29;;;;;;;435.27;25.95;;;;;;;;;;4954448;28;95004;-68
2021/12/11 09:47:00;;;;;;;158.98;19.90;;;;;;;;;;4973939;28;95281;-70
2021/12/11 09:49:32;;;;;;;211.73;22.77;;;;;;;;;;4972266;28;92479;-70
2021/12/11 09:52:03;;;;;;;122.97;19.83;;;;;;;;;;4974031;28;93852;-69
2021/12/11 09:54:31;;;;;;;237.23;21.77;;;;;;;;;;4956857;28;92463;-69
2021/12/11 09:57:07;;;;;;;209.30;20.55;;;;;;;;;;4961273;28;92535;-69
2021/12/11 09:59:35;;;;;;;164.43;21.27;;;;;;;;;;4956049;28;94692;-69
2021/12/11 10:02:04;;;;;;;204.18;21.50;;;;;;;;;;4974365;28;91580;-69
2021/12/11 10:04:37;;;;;;;304.67;24.50;;;;;;;;;;4973500;28;93015;-69
2021/12/11 10:09:42;;;;;;;197.40;21.15;;;;;;;;;;4971825;28;95118;-69
2021/12/11 10:12:12;;;;;;;340.90;22.73;;;;;;;;;;4969844;28;94303;-69
2021/12/11 10:14:40;;;;;;;189.07;20.00;;;;;;;;;;4973686;28;92327;-69
2021/12/11 10:17:20;;;;;;;195.38;20.52;;;;;;;;;;4973527;28;92559;-69
2021/12/11 10:19:48;;;;;;;248.90;22.17;;;;;;;;;;4972759;28;93554;-69
2021/12/11 10:22:20;;;;;;;162.32;22.27;;;;;;;;;;4956271;28;92728;-69
2021/12/11 10:24:48;;;;;;;338.48;28.77;;;;;;;;;;4955875;28;92476;-69
2021/12/11 10:27:16;;;;;;;331.98;26.70;;;;;;;;;;4973513;28;91809;-69
2021/12/11 10:29:45;;;;;;;306.98;23.08;;;;;;;;;;4973293;28;92415;-69
2021/12/11 10:32:14;;;;;;;79.68;18.73;;;;;;;;;;4973985;28;94795;-69
2021/12/11 10:34:42;;;;;;;250.70;20.58;;;;;;;;;;4974154;28;95948;-69
2021/12/11 10:37:10;;;;;;;185.68;21.52;;;;;;;;;;4973297;28;94328;-70
2021/12/11 10:39:40;;;;;;;261.63;21.85;;;;;;;;;;4973703;28;93591;-70
2021/12/11 10:42:07;;;;;;;145.15;19.23;;;;;;;;;;4956934;28;92473;-70
2021/12/11 10:44:36;;;;;;;106.35;18.45;;;;;;;;;;4976440;28;92344;-70
2021/12/11 10:47:08;;;;;;;188.65;20.92;;;;;;;;;;4976644;28;93960;-70
2021/12/11 10:49:35;;;;;;;161.90;19.90;;;;;;;;;;4976485;28;92398;-70
2021/12/11 10:52:05;;;;;;;42.88;17.52;;;;;;;;;;4976366;28;92974;-70
2021/12/11 10:54:32;;;;;;;171.48;19.42;;;;;;;;;;4976576;28;92330;-69
2021/12/11 10:56:59;;;;;;;201.02;19.50;;;;;;;;;;4978744;28;92418;-70
2021/12/11 10:59:27;;;;;;;76.70;19.75;;;;;;;;;;4974266;28;94912;-69
2021/12/11 11:01:55;;;;;;;144.35;20.48;;;;;;;;;;4976410;28;92450;-69
2021/12/11 11:04:30;;;;;;;50.08;16.33;;;;;;;;;;4959002;28;92615;-69
2021/12/11 11:06:57;;;;;;;116.65;20.55;;;;;;;;;;4976264;28;92510;-69
2021/12/11 11:09:24;;;;;;;131.50;18.38;;;;;;;;;;4975836;28;92612;-69
2021/12/11 11:11:53;;;;;;;96.63;18.60;;;;;;;;;;4975529;28;93367;-70
2021/12/11 11:14:20;;;;;;;120.95;19.02;;;;;;;;;;4976275;28;92344;-69
2021/12/11 11:16:53;;;;;;;65.60;18.85;;;;;;;;;;4976857;28;91622;-69
2021/12/11 11:19:21;;;;;;;45.33;18.55;;;;;;;;;;4961686;28;93338;-69
2021/12/11 11:21:49;;;;;;;102.32;18.73;;;;;;;;;;4976155;28;92386;-69
2021/12/11 11:24:16;;;;;;;41.88;17.38;;;;;;;;;;4975436;28;94857;-69
2021/12/11 11:26:44;;;;;;;77.35;17.05;;;;;;;;;;4960861;28;93776;-69
2021/12/11 11:29:13;;;;;;;87.97;16.52;;;;;;;;;;4959432;28;92411;-69
2021/12/11 11:31:41;;;;;;;33.90;15.57;;;;;;;;;;4975956;28;93298;-70
2021/12/11 11:34:10;;;;;;;27.85;16.35;;;;;;;;;;4975642;28;94567;-70
2021/12/11 11:36:37;;;;;;;33.03;15.82;;;;;;;;;;4975276;28;93002;-70
2021/12/11 11:39:06;;;;;;;43.58;17.35;;;;;;;;;;4976379;28;94459;-69
2021/12/11 11:41:34;;;;;;;27.23;17.83;;;;;;;;;;4978393;28;92772;-69
2021/12/11 11:44:02;;;;;;;29.20;18.17;;;;;;;;;;4975916;28;92786;-69
2021/12/11 11:46:28;;;;;;;24.58;16.17;;;;;;;;;;4958513;28;92432;-69
2021/12/11 11:48:56;;;;;;;31.15;18.05;;;;;;;;;;4973392;28;94903;-69
2021/12/11 11:51:32;;;;;;;29.55;17.70;;;;;;;;;;4962235;28;96043;-69
2021/12/11 11:53:59;;;;;;;27.20;16.02;;;;;;;;;;4973185;28;92384;-69
2021/12/11 11:56:28;;;;;;;26.90;17.48;;;;;;;;;;4960333;28;92517;-69
2021/12/11 11:58:54;;;;;;;29.65;18.30;;;;;;;;;;4938059;28;93355;-69
2021/12/11 12:01:26;;;;;;;27.90;16.75;;;;;;;;;;4959462;28;93392;-69
2021/12/11 12:03:52;;;;;;;27.35;17.45;;;;;;;;;;4966414;28;92517;-69
2021/12/11 12:06:24;;;;;;;27.85;18.30;;;;;;;;;;4976024;28;94525;-69
2021/12/11 12:08:52;;;;;;;28.05;18.08;;;;;;;;;;4976012;28;92555;-69
2021/12/11 12:11:19;;;;;;;31.98;18.60;;;;;;;;;;4975806;28;92207;-70
2021/12/11 12:13:46;;;;;;;25.70;17.48;;;;;;;;;;4972975;28;96286;-70
2021/12/11 12:16:26;;;;;;;30.83;19.88;;;;;;;;;;4975827;28;92277;-70
2021/12/11 12:18:53;;;;;;;26.10;17.45;;;;;;;;;;4975054;28;93534;-69
2021/12/11 12:21:20;;;;;;;24.83;15.48;;;;;;;;;;4974445;28;92460;-69
2021/12/11 12:23:46;;;;;;;23.23;15.07;;;;;;;;;;4978093;28;92301;-69
2021/12/11 12:26:15;;;;;;;21.23;14.80;;;;;;;;;;4957784;28;93177;-70
2021/12/11 12:28:41;;;;;;;23.35;15.98;;;;;;;;;;4957467;28;92509;-69
2021/12/11 12:31:11;;;;;;;21.15;15.50;;;;;;;;;;4958712;28;93211;-69
2021/12/11 12:33:38;;;;;;;21.88;15.23;;;;;;;;;;4951936;28;93503;-69
2021/12/11 12:36:05;;;;;;;23.05;15.57;;;;;;;;;;4974695;28;92552;-69
2021/12/11 12:38:33;;;;;;;28.23;16.30;;;;;;;;;;4973526;28;94773;-69
2021/12/11 12:41:02;;;;;;;21.08;14.95;;;;;;;;;;4975039;28;93454;-69
2021/12/11 12:46:26;;;;;;;19.65;14.18;;;;;;;;;;4978137;28;92276;-69
2021/12/11 12:48:52;;;;;;;20.98;13.43;;;;;;;;;;4956783;28;92516;-69
2021/12/11 12:51:18;;;;;;;18.25;13.10;;;;;;;;;;4973876;28;93351;-69
2021/12/11 12:53:45;;;;;;;17.17;12.85;;;;;;;;;;4974274;28;92378;-69
2021/12/11 12:56:14;;;;;;;16.85;13.05;;;;;;;;;;4954429;28;91718;-69
2021/12/11 12:58:59;;;;;;;16.80;13.23;;;;;;;;;;4967673;28;92343;-69
2021/12/11 13:01:31;;;;;;;16.25;12.82;;;;;;;;;;4956899;28;92513;-69
2021/12/11 13:04:02;;;;;;;16.85;13.40;;;;;;;;;;4973146;28;94942;-69
2021/12/11 13:06:31;;;;;;;24.00;15.07;;;;;;;;;;4956905;28;95675;-70
2021/12/11 13:09:00;;;;;;;21.57;15.20;;;;;;;;;;4976981;28;93472;-70
2021/12/11 13:11:28;;;;;;;25.17;17.92;;;;;;;;;;4974414;28;93351;-70
2021/12/11 13:13:56;;;;;;;24.17;17.45;;;;;;;;;;4974033;28;92432;-70
2021/12/11 13:16:25;;;;;;;26.67;17.80;;;;;;;;;;4974097;28;92475;-70
2021/12/11 13:18:57;;;;;;;23.45;16.08;;;;;;;;;;4974323;28;92347;-70
2021/12/11 13:21:29;;;;;;;25.50;17.20;;;;;;;;;;4973542;28;92210;-69
2021/12/11 13:23:56;;;;;;;24.05;18.27;;;;;;;;;;4954765;28;92321;-69
2021/12/11 13:26:23;;;;;;;29.05;18.60;;;;;;;;;;4955331;28;92364;-69
2021/12/11 13:28:54;;;;;;;30.17;19.60;;;;;;;;;;4946675;28;95952;-69
2021/12/11 13:31:23;;;;;;;30.40;19.63;;;;;;;;;;4959698;28;92491;-69
2021/12/11 13:33:50;;;;;;;30.25;19.00;;;;;;;;;;4973374;28;92452;-70
2021/12/11 13:36:19;;;;;;;30.02;21.33;;;;;;;;;;4956823;28;92497;-69
2021/12/11 13:38:46;;;;;;;34.17;21.13;;;;;;;;;;4973839;28;92428;-69
2021/12/11 13:41:16;;;;;;;36.22;20.92;;;;;;;;;;4973531;28;92445;-68
2021/12/11 13:44:03;;;;;;;34.75;20.83;;;;;;;;;;4974540;28;92600;-69
2021/12/11 13:46:30;;;;;;;30.05;19.45;;;;;;;;;;4974428;28;91862;-68
2021/12/11 13:48:56;;;;;;;29.52;19.60;;;;;;;;;;4972856;28;93463;-69
2021/12/11 13:51:24;;;;;;;35.58;19.65;;;;;;;;;;4973651;28;92386;-70
2021/12/11 13:53:51;;;;;;;30.27;19.50;;;;;;;;;;4975209;28;94723;-69
2021/12/11 13:56:20;;;;;;;28.17;18.42;;;;;;;;;;4953122;28;92566;-70
2021/12/11 13:58:47;;;;;;;31.15;18.88;;;;;;;;;;4965167;28;92391;-70
2021/12/11 14:01:20;;;;;;;32.63;18.65;;;;;;;;;;4974265;28;92403;-69
2021/12/11 14:03:49;;;;;;;29.65;19.10;;;;;;;;;;4956503;28;92452;-69
2021/12/11 14:06:16;;;;;;;26.67;17.98;;;;;;;;;;4956084;28;93112;-70
2021/12/11 14:08:43;;;;;;;30.27;18.25;;;;;;;;;;4973814;28;93406;-70
2021/12/11 14:11:12;;;;;;;31.67;18.38;;;;;;;;;;4956764;28;91972;-70
2021/12/11 14:13:39;;;;;;;32.38;17.45;;;;;;;;;;4976337;28;92849;-70
2021/12/11 14:16:07;;;;;;;32.67;18.75;;;;;;;;;;4973197;28;92526;-70
2021/12/11 14:18:34;;;;;;;29.75;17.60;;;;;;;;;;4968340;28;94762;-67
2021/12/11 14:21:01;;;;;;;31.45;18.05;;;;;;;;;;4958434;28;93184;-67
2021/12/11 14:23:34;;;;;;;28.20;17.05;;;;;;;;;;4972243;28;92955;-67
2021/12/11 14:26:03;;;;;;;39.30;23.17;;;;;;;;;;4973355;28;93239;-67
2021/12/11 14:28:30;;;;;;;36.15;17.27;;;;;;;;;;4973365;28;92434;-67
2021/12/11 14:30:59;;;;;;;31.60;16.67;;;;;;;;;;4973990;28;92388;-68
2021/12/11 14:33:25;;;;;;;31.10;16.92;;;;;;;;;;4971498;28;92296;-67
2021/12/11 14:35:52;;;;;;;27.77;15.82;;;;;;;;;;4977020;28;92791;-66
2021/12/11 14:38:19;;;;;;;26.65;15.10;;;;;;;;;;4955428;28;92454;-66
2021/12/11 14:40:47;;;;;;;31.38;15.25;;;;;;;;;;4973424;28;94367;-67
2021/12/11 14:43:14;;;;;;;31.90;14.25;;;;;;;;;;4971257;28;94896;-66
2021/12/11 14:45:42;;;;;;;26.10;12.63;;;;;;;;;;4973417;28;94320;-67